Richland, Mississippi
Current Conditions -  °F | °C
As of 3:54 AM on Saturday 01 Nov 2014 (Local Time) from KJAN Reporting Station
Clear Clear  
Wind Chill:   Ceiling: Unl
Heat Index:   Visibility: 10mi
Dew Point: -5°   Wind: 8mph
Humidity: 49%   Direction: 320°NW
Pressure: 30.3"   Gusts: NA
Location:  32.2326°N, 90.165°W
Report Text: KJAN 010854Z AUTO 32007KT 10SM CLR 05/M05 A3030 RMK AO2 SLP259 T00501050 53003 $
Loading
Personal Weather Stations






























Interactive Weather Map
Tropical Storm Tracking
New forecast layout! Learn more

10-Day Weather Forecast

Advertisements
Track Severe Weather on mobile